Time;durP1;ratioP1;P1;durP2;ratioP2;P2;SDS_P1;SDS_P2;PMS_P1;PMS_P2;Temp;Humidity;BMP_temperature;BMP_pressure;BME280_temperature;BME280_humidity;BME280_pressure;Samples;Min_cycle;Max_cycle;Signal;HPM_P1;HPM_P2
2023/04/08 10:38:23;;;;;;;33.47;13.98;;;;;;;16.22;59.92;101784.81;2112156;27;20339;-81
2023/04/08 10:39:26;;;;;;;31.00;14.70;;;;;;;16.60;58.18;101795.03;2092992;28;20611;-78
2023/04/08 10:40:35;;;;;;;29.75;14.60;;;;;;;16.78;57.26;101790.78;1167490;28;10000879;-77
2023/04/08 10:41:48;;;;;;;26.52;13.73;;;;;;;16.82;56.46;101787.19;2064402;28;20479;-77
2023/04/08 10:42:57;;;;;;;30.55;14.65;;;;;;;16.89;56.80;101787.63;2053166;28;20044;-77
2023/04/08 10:44:04;;;;;;;29.50;13.95;;;;;;;16.99;56.30;101788.59;2088032;28;20060;-80
2023/04/08 10:45:11;;;;;;;32.22;14.70;;;;;;;17.05;56.00;101796.38;2075182;28;20072;-81
2023/04/08 10:46:17;;;;;;;29.83;14.48;;;;;;;17.23;55.92;101792.09;2080557;28;20401;-82
2023/04/08 10:47:26;;;;;;;32.50;15.43;;;;;;;17.33;55.31;101791.94;2088150;28;20049;-81
2023/04/08 10:48:28;;;;;;;28.27;14.70;;;;;;;17.17;55.04;101787.81;2096062;28;20033;-80
2023/04/08 10:49:33;;;;;;;38.20;15.13;;;;;;;17.15;55.06;101784.59;2080560;28;20532;-86
2023/04/08 10:50:38;;;;;;;33.85;15.02;;;;;;;17.13;55.07;101789.50;2081642;28;20068;-83
2023/04/08 10:51:43;;;;;;;37.33;14.73;;;;;;;17.11;55.18;101789.00;2084573;28;20033;-83
2023/04/08 10:53:08;;;;;;;28.70;14.38;;;;;;;17.11;54.95;101775.41;2105756;28;20040;-83
2023/04/08 10:54:11;;;;;;;27.58;13.93;;;;;;;17.14;54.81;101783.78;2091472;28;20045;-84
2023/04/08 10:55:25;;;;;;;28.23;14.80;;;;;;;17.11;54.14;101778.13;2087742;28;20536;-82
2023/04/08 10:56:28;;;;;;;26.45;13.27;;;;;;;16.85;54.43;101786.59;2080576;28;20037;-83
2023/04/08 10:57:33;;;;;;;30.35;14.73;;;;;;;16.86;54.61;101788.22;2079035;28;20029;-83
2023/04/08 10:58:48;;;;;;;25.30;13.68;;;;;;;16.87;54.55;101781.69;2071374;28;20242;-84
2023/04/08 10:59:53;;;;;;;21.67;12.48;;;;;;;16.83;54.11;101777.13;2075607;28;20065;-82
2023/04/08 11:00:55;;;;;;;26.58;13.38;;;;;;;16.84;54.26;101779.56;2079471;28;20516;-83
2023/04/08 11:01:58;;;;;;;29.17;13.60;;;;;;;16.77;54.38;101778.28;2079106;28;20036;-86
2023/04/08 11:03:03;;;;;;;24.00;12.38;;;;;;;16.80;54.21;101783.97;2087254;28;20056;-83
2023/04/08 11:04:13;;;;;;;27.27;13.80;;;;;;;16.82;54.23;101783.66;2086581;28;20037;-81
2023/04/08 11:05:18;;;;;;;32.95;15.23;;;;;;;16.75;55.03;101786.72;2078624;28;20044;-83
2023/04/08 11:06:20;;;;;;;34.42;17.40;;;;;;;16.39;56.57;101776.25;2071482;28;20053;-83
2023/04/08 11:07:26;;;;;;;34.65;17.02;;;;;;;16.02;57.34;101779.59;2078997;28;20053;-84
2023/04/08 11:08:29;;;;;;;35.17;16.98;;;;;;;15.82;57.63;101786.00;2078372;28;20045;-84
2023/04/08 11:09:33;;;;;;;32.03;16.88;;;;;;;15.66;58.45;101781.75;2078756;28;20068;-84
2023/04/08 11:10:41;;;;;;;34.28;17.00;;;;;;;15.42;59.33;101790.59;2087538;28;20037;-84
2023/04/08 11:11:45;;;;;;;30.73;16.08;;;;;;;15.17;59.88;101785.34;2086824;28;20048;-83
2023/04/08 11:12:53;;;;;;;33.45;17.30;;;;;;;15.09;60.91;101791.31;2072517;28;20054;-83
2023/04/08 11:14:01;;;;;;;30.30;16.90;;;;;;;15.06;61.05;101790.78;2079858;28;20061;-85
2023/04/08 11:15:03;;;;;;;32.28;16.83;;;;;;;15.02;61.05;101792.44;2094968;28;20047;-82
2023/04/08 11:16:07;;;;;;;31.80;14.95;;;;;;;14.99;61.13;101784.88;2086567;28;20588;-83
2023/04/08 11:17:12;;;;;;;32.05;17.55;;;;;;;14.81;61.68;101785.47;2062948;28;20062;-82
2023/04/08 11:18:14;;;;;;;35.08;17.33;;;;;;;14.64;62.16;101776.91;2062629;28;20043;-82
2023/04/08 11:19:17;;;;;;;34.92;16.85;;;;;;;14.58;62.19;101784.22;2070596;28;20039;-82
2023/04/08 11:20:24;;;;;;;31.50;17.27;;;;;;;14.57;62.32;101783.41;2086759;28;20049;-84
2023/04/08 11:21:28;;;;;;;40.45;17.73;;;;;;;14.40;63.09;101785.56;2087564;28;20043;-84
2023/04/08 11:22:32;;;;;;;37.70;17.23;;;;;;;14.38;63.48;101779.66;2070359;28;20060;-85
2023/04/08 11:23:37;;;;;;;31.13;16.30;;;;;;;14.25;63.59;101777.47;2065474;28;20051;-84
2023/04/08 11:24:40;;;;;;;32.63;17.40;;;;;;;14.20;64.53;101775.63;2070802;28;20073;-84
2023/04/08 11:25:46;;;;;;;39.47;17.67;;;;;;;14.08;64.34;101785.91;2079333;28;20521;-83
2023/04/08 11:26:52;;;;;;;40.33;17.75;;;;;;;14.05;64.54;101787.25;2079515;28;20045;-83
2023/04/08 11:27:59;;;;;;;37.72;16.33;;;;;;;14.09;64.82;101792.91;2080509;28;20064;-83
2023/04/08 11:29:05;;;;;;;32.20;16.20;;;;;;;14.13;64.80;101785.91;2063680;28;20085;-84
2023/04/08 11:30:11;;;;;;;39.57;18.50;;;;;;;14.12;64.92;101793.22;2074119;28;20049;-84
2023/04/08 11:31:17;;;;;;;37.22;16.95;;;;;;;14.09;64.84;101793.75;2088904;28;20708;-84
2023/04/08 11:32:22;;;;;;;36.72;17.98;;;;;;;13.93;65.38;101781.31;2096489;28;20039;-83
2023/04/08 11:33:30;;;;;;;36.17;17.40;;;;;;;13.85;65.50;101781.84;2088420;28;20045;-84
2023/04/08 11:34:41;;;;;;;34.47;16.90;;;;;;;13.85;66.16;101784.56;2072830;28;20038;-84
2023/04/08 11:35:44;;;;;;;33.13;16.52;;;;;;;13.89;65.76;101791.03;2074367;28;20073;-85
2023/04/08 11:36:53;;;;;;;33.00;15.70;;;;;;;13.96;65.92;101788.06;2088245;28;20072;-84
2023/04/08 11:38:00;;;;;;;36.90;16.05;;;;;;;14.04;66.17;101790.25;2071717;28;20050;-85
2023/04/08 11:39:07;;;;;;;35.00;15.85;;;;;;;14.09;65.60;101782.94;2073745;28;20045;-85
2023/04/08 11:40:12;;;;;;;30.77;16.33;;;;;;;14.16;65.82;101795.38;2088084;28;20045;-86
2023/04/08 11:41:16;;;;;;;32.85;15.55;;;;;;;13.99;65.28;101779.41;2088207;28;20037;-84
2023/04/08 11:42:32;;;;;;;36.50;17.25;;;;;;;13.88;65.73;101786.72;2096471;28;20036;-86
2023/04/08 11:43:39;;;;;;;29.63;15.40;;;;;;;13.80;65.85;101785.34;2085164;28;20523;-81
2023/04/08 11:44:42;;;;;;;32.72;15.15;;;;;;;13.73;65.89;101792.94;2080692;28;20060;-85
2023/04/08 11:45:49;;;;;;;31.42;15.75;;;;;;;13.64;66.16;101791.84;2080375;28;20049;-84
2023/04/08 11:46:56;;;;;;;33.03;15.90;;;;;;;13.50;66.49;101793.47;2072787;28;20422;-85
2023/04/08 11:48:10;;;;;;;28.70;16.10;;;;;;;13.44;66.74;101785.34;2072857;28;20038;-85
2023/04/08 11:49:12;;;;;;;31.63;15.75;;;;;;;13.49;66.85;101794.50;2071250;28;20046;-84
2023/04/08 11:50:28;;;;;;;31.15;16.58;;;;;;;13.42;66.90;101783.97;2074778;28;20034;-85
2023/04/08 11:51:33;;;;;;;40.65;16.95;;;;;;;13.40;67.07;101788.84;2058471;28;20039;-83
2023/04/08 11:52:46;;;;;;;28.88;14.55;;;;;;;13.41;67.38;101790.47;2053141;28;20422;-84
2023/04/08 11:53:50;;;;;;;;;;;;;;;13.48;67.46;101788.31;2069186;28;20046;-85
2023/04/08 11:54:55;;;;;;;32.58;15.15;;;;;;;13.48;67.73;101788.31;2074956;28;19913;-84
2023/04/08 11:56:18;;;;;;;30.83;15.73;;;;;;;13.42;67.23;101792.06;2081804;28;20536;-85
2023/04/08 11:57:31;;;;;;;30.27;14.20;;;;;;;13.51;67.28;101793.19;2081125;28;20137;-84
2023/04/08 11:58:41;;;;;;;38.35;16.25;;;;;;;13.57;67.59;101792.09;2068182;28;20038;-84
2023/04/08 11:59:47;;;;;;;33.47;14.77;;;;;;;13.58;67.61;101792.91;2075580;28;20054;-86
2023/04/08 12:00:53;;;;;;;29.80;15.77;;;;;;;13.53;67.48;101798.31;2082309;28;20040;-85
2023/04/08 12:01:56;;;;;;;28.17;14.85;;;;;;;13.46;67.93;101793.16;2066898;28;20395;-86
2023/04/08 12:03:01;;;;;;;30.58;14.13;;;;;;;13.49;67.91;101794.50;2058121;28;20384;-85
2023/04/08 12:04:05;;;;;;;29.67;15.02;;;;;;;13.43;67.88;101788.31;2067611;28;20394;-86
2023/04/08 12:05:09;;;;;;;32.50;15.38;;;;;;;13.39;67.81;101801.53;2082240;28;20421;-87
2023/04/08 12:06:15;;;;;;;29.40;15.30;;;;;;;13.42;67.88;101800.97;2066971;28;20050;-86
2023/04/08 12:07:18;;;;;;;35.50;15.65;;;;;;;13.41;67.88;101798.56;2074744;28;20057;-86
2023/04/08 12:08:25;;;;;;;37.80;15.45;;;;;;;13.43;67.83;101796.41;2082191;28;20542;-87
2023/04/08 12:09:27;;;;;;;30.98;15.73;;;;;;;13.42;67.73;101794.78;2074500;28;20037;-86
2023/04/08 12:10:30;;;;;;;30.67;14.85;;;;;;;13.33;67.79;101801.78;2074150;28;20501;-85
2023/04/08 12:11:34;;;;;;;33.05;15.02;;;;;;;13.18;67.90;101800.66;2083399;28;20408;-86
2023/04/08 12:12:38;;;;;;;36.40;15.40;;;;;;;13.10;68.01;101811.13;2090710;28;20048;-87
2023/04/08 12:13:43;;;;;;;36.42;17.63;;;;;;;12.90;68.84;101806.47;2073815;28;20041;-86
2023/04/08 12:14:48;;;;;;;35.92;16.80;;;;;;;12.69;68.81;101803.66;2066646;28;20538;-87
2023/04/08 12:15:51;;;;;;;31.23;16.40;;;;;;;12.75;68.88;101805.31;2075235;28;20044;-87
2023/04/08 12:16:57;;;;;;;39.35;16.58;;;;;;;12.80;68.98;101795.63;2066315;28;20049;-86
2023/04/08 12:17:59;;;;;;;33.33;15.75;;;;;;;12.79;68.94;101799.41;2059795;28;20035;-87
2023/04/08 12:19:07;;;;;;;36.13;16.52;;;;;;;12.72;68.59;101797.75;2074445;28;20601;-87
2023/04/08 12:20:11;;;;;;;35.20;16.00;;;;;;;12.70;68.74;101799.91;2082202;28;20048;-86
2023/04/08 12:21:13;;;;;;;38.45;17.75;;;;;;;12.60;68.51;101805.22;2082719;28;20039;-86
2023/04/08 12:22:19;;;;;;;32.08;16.52;;;;;;;12.61;69.13;101801.47;2082194;28;20045;-86
2023/04/08 12:23:26;;;;;;;33.80;16.58;;;;;;;12.61;69.12;101795.25;2066794;28;20402;-85
2023/04/08 12:24:29;;;;;;;38.72;17.30;;;;;;;12.48;69.07;101804.63;2067099;28;20510;-86
2023/04/08 12:25:34;;;;;;;39.33;16.58;;;;;;;12.29;69.42;101798.84;2074275;28;20034;-85
2023/04/08 12:26:41;;;;;;;37.20;16.60;;;;;;;12.17;69.27;101800.91;2083016;28;20509;-86
2023/04/08 12:27:49;;;;;;;33.83;17.30;;;;;;;12.11;69.36;101797.38;2083423;28;20042;-84
2023/04/08 12:28:57;;;;;;;35.00;17.23;;;;;;;12.00;70.25;101787.56;2089523;28;20041;-84
2023/04/08 12:30:01;;;;;;;36.97;16.85;;;;;;;12.02;69.93;101797.03;2081892;28;20044;-84
2023/04/08 12:31:07;;;;;;;34.83;17.13;;;;;;;11.98;70.42;101798.63;2076136;28;20044;-88
2023/04/08 12:32:12;;;;;;;35.00;17.10;;;;;;;11.94;70.46;101796.69;2071159;28;20038;-86
2023/04/08 12:33:17;;;;;;;35.25;17.70;;;;;;;11.77;70.25;101797.59;2078391;28;20037;-85
2023/04/08 12:34:23;;;;;;;37.85;17.40;;;;;;;11.75;70.49;101794.34;2080158;28;20540;-80
2023/04/08 12:35:28;;;;;;;34.42;16.60;;;;;;;11.80;70.91;101790.91;2081336;28;20053;-83
2023/04/08 12:36:36;;;;;;;34.20;16.88;;;;;;;11.85;71.06;101792.84;2071897;28;20044;-85
2023/04/08 12:37:39;;;;;;;37.47;19.17;;;;;;;11.90;70.69;101790.19;2065212;28;20430;-81
2023/04/08 12:38:41;;;;;;;38.10;17.80;;;;;;;11.98;70.87;101790.53;2064667;28;20756;-84
2023/04/08 12:39:48;;;;;;;31.52;15.73;;;;;;;11.95;70.94;101787.56;2073425;28;20049;-85
2023/04/08 12:40:53;;;;;;;33.33;15.93;;;;;;;11.96;70.88;101791.88;2073948;28;20041;-83
2023/04/08 12:41:55;;;;;;;33.25;15.75;;;;;;;12.02;71.20;101794.34;2072917;28;20037;-82
2023/04/08 12:42:58;;;;;;;34.35;14.88;;;;;;;12.17;70.99;101790.97;2064836;28;20038;-84
2023/04/08 12:44:00;;;;;;;26.90;13.73;;;;;;;12.28;70.61;101791.81;2077793;28;20037;-81
2023/04/08 12:45:10;;;;;;;32.95;15.13;;;;;;;12.22;70.78;101790.97;2073129;28;20528;-84
2023/04/08 12:46:13;;;;;;;30.77;15.60;;;;;;;12.25;70.36;101787.75;2079455;28;20030;-83
2023/04/08 12:47:22;;;;;;;35.85;15.70;;;;;;;12.27;70.66;101785.63;2073605;28;20034;-82
2023/04/08 12:49:05;;;;;;;36.35;16.25;;;;;;;12.57;71.45;101788.75;2129496;27;20107;-77
2023/04/08 12:50:10;;;;;;;33.95;15.88;;;;;;;12.86;70.67;101794.56;2109260;28;20032;-77
2023/04/08 12:51:15;;;;;;;29.10;14.05;;;;;;;13.01;69.51;101794.63;2093805;28;20040;-77
2023/04/08 12:52:19;;;;;;;34.67;15.30;;;;;;;13.06;69.14;101794.66;2095123;28;20045;-74
2023/04/08 12:53:21;;;;;;;29.80;15.13;;;;;;;13.08;68.18;101794.38;2103453;28;20036;-76
2023/04/08 12:54:23;;;;;;;33.20;15.65;;;;;;;13.11;68.01;101791.97;2078865;28;20044;-75
2023/04/08 12:55:31;;;;;;;29.67;14.23;;;;;;;13.05;67.85;101790.34;2087849;27;20049;-75
2023/04/08 12:56:37;;;;;;;28.67;13.60;;;;;;;12.87;67.35;101786.22;2120259;28;20039;-78
2023/04/08 12:57:40;;;;;;;25.90;13.70;;;;;;;12.84;67.68;101791.34;2108933;28;20059;-78
2023/04/08 12:58:45;;;;;;;28.67;13.95;;;;;;;12.85;67.60;101795.66;2095263;28;20040;-76
2023/04/08 12:59:50;;;;;;;32.42;13.40;;;;;;;12.90;67.71;101795.69;2094560;28;20051;-76
2023/04/08 13:00:51;;;;;;;25.27;13.48;;;;;;;12.88;67.34;101797.81;2096316;28;20032;-79
2023/04/08 13:01:55;;;;;;;25.80;13.15;;;;;;;12.85;67.65;101796.44;2094445;28;20853;-77
2023/04/08 13:02:57;;;;;;;28.27;13.52;;;;;;;12.81;67.00;101787.25;2104244;28;20412;-77
2023/04/08 13:03:59;;;;;;;23.50;12.10;;;;;;;12.69;67.68;101786.66;2103359;28;20032;-77
2023/04/08 13:05:06;;;;;;;25.67;12.63;;;;;;;12.71;67.58;101795.31;2095838;28;20043;-77
2023/04/08 13:06:11;;;;;;;31.67;13.32;;;;;;;12.58;67.96;101790.38;2094112;28;20036;-76
2023/04/08 13:07:14;;;;;;;28.10;13.00;;;;;;;12.54;67.72;101792.78;2087580;28;20029;-78
2023/04/08 13:08:19;;;;;;;26.90;12.52;;;;;;;12.44;68.11;101773.84;2102574;28;20036;-76
2023/04/08 13:09:25;;;;;;;31.55;12.50;;;;;;;12.49;68.18;101788.19;2094906;28;20048;-77
2023/04/08 13:10:28;;;;;;;25.67;11.60;;;;;;;12.54;68.45;101790.09;2087876;28;20048;-76
2023/04/08 13:11:35;;;;;;;25.55;11.35;;;;;;;12.58;68.09;101793.91;2103137;28;20562;-77
2023/04/08 13:12:39;;;;;;;29.58;12.05;;;;;;;12.50;68.40;101784.41;2096875;28;20463;-77
2023/04/08 13:13:40;;;;;;;31.65;12.95;;;;;;;12.37;68.21;101792.16;2084262;28;20101;-77
2023/04/08 13:14:42;;;;;;;26.98;12.25;;;;;;;12.28;68.69;101791.81;2086864;28;20052;-76
2023/04/08 13:15:45;;;;;;;28.42;11.98;;;;;;;12.28;68.88;101789.94;2086618;28;20515;-77
2023/04/08 13:16:50;;;;;;;29.63;12.13;;;;;;;12.20;68.70;101795.81;2090709;28;20610;-78
2023/04/08 13:17:58;;;;;;;24.98;11.40;;;;;;;12.26;68.42;101799.34;2101836;28;20071;-77
2023/04/08 13:19:04;;;;;;;24.35;12.15;;;;;;;12.26;68.70;101789.41;2096234;28;20551;-78
2023/04/08 13:20:14;;;;;;;23.58;10.70;;;;;;;12.25;68.91;101793.16;2080740;28;20531;-77
2023/04/08 13:21:16;;;;;;;;;;;;;;;12.24;69.37;101786.13;2090891;28;20040;-77
2023/04/08 13:22:21;;;;;;;24.00;9.90;;;;;;;12.15;69.24;101790.38;2119318;27;19922;-77
2023/04/08 13:23:26;;;;;;;21.88;11.10;;;;;;;12.03;69.34;101790.56;2094594;28;20051;-76
2023/04/08 13:24:32;;;;;;;25.75;10.52;;;;;;;11.94;69.44;101785.91;2087985;28;20036;-82
2023/04/08 13:25:36;;;;;;;28.17;10.80;;;;;;;11.85;70.13;101787.44;2107587;28;20037;-76
2023/04/08 13:26:42;;;;;;;21.08;10.07;;;;;;;11.90;70.02;101795.59;2117302;28;20043;-75
2023/04/08 13:27:46;;;;;;;22.85;9.63;;;;;;;11.91;70.12;101791.81;2118444;27;20024;-76
2023/04/08 13:28:51;;;;;;;19.77;10.07;;;;;;;11.79;70.05;101797.31;2102365;28;20415;-76
2023/04/08 13:29:52;;;;;;;18.55;9.60;;;;;;;11.63;70.50;101792.88;2091412;28;20079;-77
2023/04/08 13:30:57;;;;;;;22.25;9.30;;;;;;;11.59;70.57;101795.28;2094638;28;20039;-76
2023/04/08 13:32:00;;;;;;;19.98;9.73;;;;;;;11.59;70.97;101790.69;2082929;28;20607;-75
2023/04/08 13:33:02;;;;;;;18.63;8.65;;;;;;;11.65;70.86;101794.25;2095300;28;20037;-78
2023/04/08 13:34:07;;;;;;;16.83;8.90;;;;;;;11.65;70.59;101801.53;2113944;27;20039;-76
2023/04/08 13:35:09;;;;;;;17.95;8.32;;;;;;;11.46;71.06;101791.09;2101738;28;20094;-76
2023/04/08 13:36:12;;;;;;;18.63;8.98;;;;;;;11.43;71.37;101791.63;2108467;28;20610;-76
2023/04/08 13:37:15;;;;;;;20.55;8.30;;;;;;;11.33;71.21;101791.50;2111422;28;20039;-75
2023/04/08 13:38:18;;;;;;;18.58;9.15;;;;;;;11.28;72.11;101794.94;2087451;28;20558;-77
2023/04/08 13:39:23;;;;;;;18.58;9.90;;;;;;;11.34;71.69;101788.56;2095359;28;20059;-75
2023/04/08 13:40:26;;;;;;;17.27;8.65;;;;;;;11.36;71.97;101791.00;2094831;28;20036;-77
2023/04/08 13:41:32;;;;;;;18.52;8.02;;;;;;;11.41;72.06;101798.31;2095576;28;20051;-77
2023/04/08 13:42:34;;;;;;;16.95;8.95;;;;;;;11.51;71.89;101798.44;2095306;28;20040;-76
2023/04/08 13:43:40;;;;;;;21.35;8.65;;;;;;;11.50;71.55;101799.50;2075595;28;20076;-76
2023/04/08 13:44:46;;;;;;;18.17;8.63;;;;;;;11.37;71.86;101792.63;2105063;28;20044;-76
2023/04/08 13:45:49;;;;;;;23.25;10.18;;;;;;;11.42;71.99;101794.56;2106957;28;20040;-75
2023/04/08 13:46:54;;;;;;;17.95;9.02;;;;;;;11.32;72.21;101790.72;2102534;28;20040;-78
2023/04/08 13:48:05;;;;;;;17.15;8.68;;;;;;;11.30;72.54;101792.81;2106486;28;20047;-78
2023/04/08 13:49:09;;;;;;;18.85;8.10;;;;;;;11.28;71.68;101784.19;2094754;28;20041;-79
2023/04/08 13:50:12;;;;;;;18.88;8.85;;;;;;;11.27;72.59;101787.13;2085532;28;20037;-77
2023/04/08 13:51:17;;;;;;;17.85;8.43;;;;;;;11.19;72.38;101791.09;2087567;28;20512;-78
2023/04/08 13:52:21;;;;;;;15.98;8.80;;;;;;;11.06;72.88;101780.69;2096140;28;20041;-77
2023/04/08 13:53:26;;;;;;;18.83;8.35;;;;;;;11.10;72.83;101789.91;2102768;28;20040;-76
2023/04/08 13:54:32;;;;;;;20.55;8.13;;;;;;;11.17;73.02;101795.13;2088568;28;20048;-87
2023/04/08 13:55:36;;;;;;;23.38;9.48;;;;;;;11.13;73.44;101792.13;2102359;28;20820;-84
2023/04/08 13:56:42;;;;;;;15.02;7.95;;;;;;;11.09;72.88;101791.78;2086775;28;20080;-83
2023/04/08 13:57:45;;;;;;;20.08;8.85;;;;;;;11.07;72.86;101787.72;2083568;28;20076;-84
2023/04/08 13:58:51;;;;;;;15.85;8.05;;;;;;;11.05;72.80;101801.44;2112341;28;20285;-83
2023/04/08 13:59:55;;;;;;;18.75;8.77;;;;;;;11.01;73.22;101797.63;2111680;28;20044;-83
2023/04/08 14:01:03;;;;;;;20.98;9.50;;;;;;;10.98;73.13;101794.63;2100153;28;20028;-82
2023/04/08 14:02:05;;;;;;;24.30;9.02;;;;;;;10.93;73.52;101797.25;2092065;28;20040;-81
2023/04/08 14:03:09;;;;;;;19.98;9.82;;;;;;;10.89;73.71;101792.34;2086831;28;20049;-86
2023/04/08 14:04:14;;;;;;;17.65;8.20;;;;;;;10.89;74.02;101797.75;2080712;28;20033;-92
2023/04/08 14:05:20;;;;;;;17.85;9.32;;;;;;;10.90;73.70;101791.28;2079234;28;20025;-82
2023/04/08 14:06:30;;;;;;;20.15;8.88;;;;;;;10.92;73.78;101792.94;2094480;28;20036;-84
2023/04/08 14:07:35;;;;;;;17.10;8.82;;;;;;;10.92;73.64;101798.31;2094253;28;20698;-87
2023/04/08 14:08:42;;;;;;;18.65;8.55;;;;;;;10.95;73.87;101800.50;2091248;28;20412;-88
2023/04/08 14:09:45;;;;;;;19.63;9.02;;;;;;;10.96;73.74;101794.03;2080512;28;20037;-82
2023/04/08 14:10:51;;;;;;;20.85;8.32;;;;;;;10.97;73.74;101799.19;2102250;28;20036;-83
2023/04/08 14:11:55;;;;;;;20.13;8.25;;;;;;;11.00;73.62;101795.16;2104585;28;20039;-83
2023/04/08 14:12:58;;;;;;;20.73;8.57;;;;;;;11.00;73.72;101803.22;2101370;28;20491;-83
2023/04/08 14:14:01;;;;;;;19.27;8.63;;;;;;;11.00;73.73;101792.47;2105738;28;20066;-84
2023/04/08 14:15:07;;;;;;;20.95;9.10;;;;;;;10.98;74.19;101795.44;2083649;28;20048;-85
2023/04/08 14:16:13;;;;;;;17.05;8.15;;;;;;;11.00;73.52;101792.47;2089637;28;20043;-84
2023/04/08 14:17:15;;;;;;;16.40;8.68;;;;;;;10.99;73.73;101788.97;2093708;28;20036;-84
2023/04/08 14:18:20;;;;;;;20.15;8.52;;;;;;;10.99;73.85;101791.66;2079658;28;20049;-84
2023/04/08 14:19:23;;;;;;;15.80;8.55;;;;;;;11.03;74.05;101791.97;2074286;28;20042;-83
2023/04/08 14:20:26;;;;;;;15.77;8.90;;;;;;;11.02;74.20;101793.03;2088734;28;20056;-84
2023/04/08 14:21:30;;;;;;;22.63;8.30;;;;;;;11.04;73.67;101793.63;2085176;28;20041;-82
2023/04/08 14:22:40;;;;;;;21.20;8.15;;;;;;;11.03;74.15;101792.78;2103294;28;20059;-82
2023/04/08 14:23:48;;;;;;;18.58;8.90;;;;;;;11.07;73.86;101787.72;2102719;28;20384;-82
2023/04/08 14:24:56;;;;;;;19.70;7.75;;;;;;;11.07;73.94;101788.53;2094363;28;20033;-83
2023/04/08 14:26:05;;;;;;;17.40;8.30;;;;;;;11.04;73.31;101799.81;2101648;28;20039;-84
2023/04/08 14:27:08;;;;;;;15.00;7.65;;;;;;;11.04;73.16;101790.94;2099626;28;20420;-80
2023/04/08 14:28:10;;;;;;;16.63;7.93;;;;;;;11.01;73.51;101794.94;2094410;28;20063;-79
2023/04/08 14:29:13;;;;;;;17.30;7.65;;;;;;;11.02;72.99;101791.16;2093151;28;20878;-80
2023/04/08 14:30:18;;;;;;;15.60;8.45;;;;;;;11.01;73.81;101780.66;2093876;28;20041;-80
2023/04/08 14:31:29;;;;;;;18.38;8.18;;;;;;;11.02;73.74;101790.34;2092497;28;20059;-80
2023/04/08 14:32:32;;;;;;;21.88;8.20;;;;;;;11.02;73.74;101790.34;2091737;28;20049;-80
2023/04/08 14:33:38;;;;;;;15.75;7.95;;;;;;;11.00;73.17;101792.47;2093896;28;20051;-82
2023/04/08 14:34:40;;;;;;;17.08;7.22;;;;;;;11.00;73.49;101792.47;2092768;28;20126;-80
2023/04/08 14:35:47;;;;;;;18.63;8.23;;;;;;;11.00;73.08;101787.09;2085387;28;20047;-81
2023/04/08 14:36:50;;;;;;;17.88;8.23;;;;;;;11.02;73.15;101801.13;2102307;28;20048;-80
2023/04/08 14:37:55;;;;;;;19.27;9.13;;;;;;;11.04;73.79;101799.00;2100078;28;20720;-81
2023/04/08 14:38:58;;;;;;;17.63;8.27;;;;;;;11.01;73.47;101789.53;2093459;28;20781;-80
2023/04/08 14:40:04;;;;;;;21.65;8.80;;;;;;;11.02;73.70;101790.34;2092561;28;20535;-80
2023/04/08 14:41:14;;;;;;;14.48;7.00;;;;;;;10.99;73.74;101790.84;2098369;28;20047;-79
2023/04/08 14:42:26;;;;;;;17.65;8.50;;;;;;;10.98;73.08;101797.31;2092520;28;20036;-81
2023/04/08 14:43:33;;;;;;;27.70;10.05;;;;;;;10.94;73.14;101793.47;2073884;28;20033;-82
2023/04/08 14:44:36;;;;;;;18.73;8.02;;;;;;;10.92;73.81;101799.13;2077676;28;20048;-81
2023/04/08 14:45:43;;;;;;;17.08;8.52;;;;;;;10.88;74.09;101798.81;2093821;28;20048;-82
2023/04/08 14:46:46;;;;;;;16.52;8.93;;;;;;;10.86;74.09;101792.03;2091635;28;20041;-81
2023/04/08 14:47:52;;;;;;;22.13;8.52;;;;;;;10.85;74.13;101796.63;2093934;28;20032;-81
2023/04/08 14:48:55;;;;;;;20.85;8.70;;;;;;;10.86;73.80;101794.75;2100591;28;20052;-81
2023/04/08 14:50:00;;;;;;;19.67;8.27;;;;;;;10.84;74.37;101797.66;2100168;28;20047;-81
2023/04/08 14:51:02;;;;;;;17.40;8.48;;;;;;;10.84;74.00;101803.03;2085021;28;20034;-82
2023/04/08 14:52:05;;;;;;;20.83;8.38;;;;;;;10.80;74.64;101798.41;2085645;28;20910;-81
2023/04/08 14:53:08;;;;;;;22.15;8.52;;;;;;;10.79;74.65;101811.06;2093729;28;20040;-82
2023/04/08 14:54:12;;;;;;;23.73;8.98;;;;;;;10.79;74.27;101800.31;2100434;28;20037;-82
2023/04/08 14:55:16;;;;;;;18.60;8.55;;;;;;;10.79;74.67;101813.75;2092366;28;20032;-82
2023/04/08 14:56:18;;;;;;;20.95;8.75;;;;;;;10.79;74.12;101811.06;2091319;28;20048;-81
2023/04/08 14:57:21;;;;;;;15.25;8.15;;;;;;;10.77;74.63;101802.41;2095905;28;20279;-81
2023/04/08 14:58:26;;;;;;;17.17;8.13;;;;;;;10.77;74.45;101812.38;2105226;28;20042;-82
2023/04/08 14:59:29;;;;;;;17.05;8.38;;;;;;;10.76;74.42;101810.75;2105166;28;20039;-81
2023/04/08 15:00:34;;;;;;;19.25;8.52;;;;;;;10.76;74.56;101806.19;2089353;28;20291;-82
2023/04/08 15:01:40;;;;;;;23.55;8.43;;;;;;;10.73;74.70;101803.19;2074252;28;20031;-82
2023/04/08 15:02:45;;;;;;;20.95;9.10;;;;;;;10.73;74.90;101806.69;2083880;28;20041;-82
2023/04/08 15:03:47;;;;;;;17.27;8.63;;;;;;;10.73;74.75;101809.38;2089969;28;20040;-82
2023/04/08 15:04:55;;;;;;;20.20;8.50;;;;;;;10.73;74.67;101805.88;2088732;28;20536;-82
2023/04/08 15:06:02;;;;;;;23.70;10.88;;;;;;;10.70;74.57;101809.88;2099385;28;20037;-80
2023/04/08 15:07:07;;;;;;;26.48;12.60;;;;;;;10.68;75.05;101802.03;2072252;28;20285;-82
2023/04/08 15:08:12;;;;;;;18.02;8.90;;;;;;;10.70;74.50;101804.47;2085147;28;20048;-83
2023/04/08 15:09:15;;;;;;;23.05;9.63;;;;;;;10.71;74.83;101800.72;2087881;28;20363;-82
2023/04/08 15:10:21;;;;;;;18.83;9.23;;;;;;;10.71;75.07;101806.09;2099174;28;20052;-84
2023/04/08 15:11:28;;;;;;;21.95;9.43;;;;;;;10.73;74.71;101800.50;2091341;28;20883;-85
2023/04/08 15:12:45;;;;;;;29.17;14.00;;;;;;;10.75;75.29;101806.41;2100701;28;20049;-85
2023/04/08 15:13:48;;;;;;;30.02;13.57;;;;;;;10.75;74.63;101796.50;2096914;28;20036;-85
2023/04/08 15:14:56;;;;;;;22.88;9.18;;;;;;;10.74;74.93;101797.53;2073969;28;20842;-84
2023/04/08 15:15:59;;;;;;;19.77;9.63;;;;;;;10.75;74.54;101799.19;2090812;28;20037;-82
2023/04/08 15:17:05;;;;;;;17.73;9.00;;;;;;;10.74;75.06;101794.84;2096598;28;20047;-83
2023/04/08 15:18:14;;;;;;;17.80;8.70;;;;;;;10.74;74.78;101805.59;2080791;28;20065;-82
2023/04/08 15:19:19;;;;;;;19.27;8.95;;;;;;;10.73;74.69;101803.19;2074520;28;20057;-81
2023/04/08 15:20:24;;;;;;;23.80;9.55;;;;;;;10.71;74.63;101805.28;2073263;28;20516;-82
2023/04/08 15:21:34;;;;;;;21.05;9.15;;;;;;;10.68;75.25;101802.03;2091594;28;20049;-83
2023/04/08 15:22:36;;;;;;;16.83;8.68;;;;;;;10.66;75.43;101803.38;2105796;28;20368;-81
2023/04/08 15:23:42;;;;;;;24.05;9.52;;;;;;;10.64;74.87;101797.41;2080346;28;20075;-83
2023/04/08 15:24:45;;;;;;;21.15;9.43;;;;;;;10.59;75.01;101797.31;2074224;28;20058;-83
2023/04/08 15:25:48;;;;;;;23.30;9.10;;;;;;;10.58;74.72;101793.03;2088545;28;20051;-82
2023/04/08 15:26:51;;;;;;;21.05;9.82;;;;;;;10.59;75.08;101798.16;2088958;28;20044;-82
2023/04/08 15:27:55;;;;;;;22.33;9.55;;;;;;;10.53;75.16;101788.41;2097164;28;20613;-80
2023/04/08 15:29:00;;;;;;;16.48;9.05;;;;;;;10.57;74.85;101800.28;2080469;28;20033;-82
2023/04/08 15:30:04;;;;;;;21.80;10.02;;;;;;;10.57;75.25;101799.47;2064823;28;20042;-82
2023/04/08 15:31:20;;;;;;;23.75;9.45;;;;;;;10.57;74.92;101800.28;2082299;28;20049;-83
2023/04/08 15:32:31;;;;;;;23.77;9.77;;;;;;;10.54;75.06;101798.09;2096071;28;20334;-83
2023/04/08 15:33:40;;;;;;;23.20;10.60;;;;;;;10.56;75.64;101797.81;2090091;28;20045;-83
2023/04/08 15:34:46;;;;;;;26.92;10.45;;;;;;;10.54;75.83;101794.59;2096812;28;20286;-83
2023/04/08 15:35:52;;;;;;;28.90;11.00;;;;;;;10.52;75.29;101796.69;2097369;28;20052;-82
2023/04/08 15:36:56;;;;;;;27.20;11.15;;;;;;;10.52;76.14;101799.38;2096059;28;20040;-83